Rawalpindi, Pakistan
Current Conditions -  °F | °C
As of 11:00 AM on Sunday 23 Nov 2014 (Local Time) from OPRN Reporting Station
Haze Haze  
Wind Chill: 66°   Ceiling: Unl
Heat Index: 66°   Visibility: 2.1mi
Dew Point: 41°   Wind: 0mph
Humidity: 40%   Direction: NA
Pressure: NA   Gusts: NA
Location:  33.6°N, 73.04°E
Report Text: OPRN 230600Z 00000KT 3500 HZ SKC 19/05 Q1020/30.12
Loading
Personal Weather Stations






























Interactive Weather Map New forecast layout! Learn more

10-Day Weather Forecast

Advertisements
Track Severe Weather on mobile